CheckWX is a tool to help pilots better visualize weather data.  It is not intended as a substitute for an official pre-flight weather briefing.

04:17:25 UTC

PADQ TAF
Kodiak Airport
Kodiak, Alaska, USA
PADQ 262335Z 2700/2724 06008KT P6SM FEW050 SCT080 FM270600 28006KT P6SM FEW010

Jun-27@
00:00 UTC

Jun-27 @ 00:00 UTC

Jun-27@
06:00 UTC

Jun-27 @ 06:00 UTC

PADQ 262335Z 2700/2724 06008KT P6SM FEW050 SCT080
Wind
  • 060° at 8 KTS
Cloud Levels
  • Few at 5,000' AGL
  • Scattered at 8,000' AGL

Jun-27@
06:00 UTC

Jun-27 @ 06:00 UTC

Jun-28@
00:00 UTC

Jun-28 @ 00:00 UTC

FM270600 28006KT P6SM FEW010

From

From Standard forecast or significant change

Wind
  • 280° at 6 KTS
Cloud Levels
  • Few at 1,000' AGL